sensor_id;sensor_type;location;lat;lon;timestamp;P1;durP1;ratioP1;P2;durP2;ratioP2
8480;SDS011;4277;51.354;6.740;2023-10-09T00:00:56;21.37;;;13.87;;
8480;SDS011;4277;51.354;6.740;2023-10-09T00:03:38;22.10;;;13.80;;
8480;SDS011;4277;51.354;6.740;2023-10-09T00:06:04;29.07;;;15.03;;
8480;SDS011;4277;51.354;6.740;2023-10-09T00:08:30;25.30;;;14.17;;
8480;SDS011;4277;51.354;6.740;2023-10-09T00:10:57;24.07;;;13.80;;
8480;SDS011;4277;51.354;6.740;2023-10-09T00:13:44;24.37;;;13.30;;
8480;SDS011;4277;51.354;6.740;2023-10-09T00:16:23;22.80;;;12.97;;
8480;SDS011;4277;51.354;6.740;2023-10-09T00:19:01;24.73;;;13.93;;
8480;SDS011;4277;51.354;6.740;2023-10-09T00:21:46;22.53;;;13.53;;
8480;SDS011;4277;51.354;6.740;2023-10-09T00:24:12;15.90;;;10.93;;
8480;SDS011;4277;51.354;6.740;2023-10-09T00:26:39;23.23;;;13.97;;
8480;SDS011;4277;51.354;6.740;2023-10-09T00:29:09;22.47;;;12.50;;
8480;SDS011;4277;51.354;6.740;2023-10-09T00:31:47;20.27;;;12.47;;
8480;SDS011;4277;51.354;6.740;2023-10-09T00:34:19;20.30;;;11.73;;
8480;SDS011;4277;51.354;6.740;2023-10-09T00:36:47;18.30;;;12.33;;
8480;SDS011;4277;51.354;6.740;2023-10-09T00:39:19;20.17;;;12.57;;
8480;SDS011;4277;51.354;6.740;2023-10-09T00:42:00;24.20;;;12.07;;
8480;SDS011;4277;51.354;6.740;2023-10-09T00:44:27;18.70;;;12.07;;
8480;SDS011;4277;51.354;6.740;2023-10-09T00:47:06;17.93;;;12.27;;
8480;SDS011;4277;51.354;6.740;2023-10-09T00:50:07;22.43;;;12.73;;
8480;SDS011;4277;51.354;6.740;2023-10-09T00:52:40;22.33;;;13.00;;
8480;SDS011;4277;51.354;6.740;2023-10-09T00:55:17;20.77;;;12.67;;
8480;SDS011;4277;51.354;6.740;2023-10-09T00:57:55;20.23;;;13.23;;
8480;SDS011;4277;51.354;6.740;2023-10-09T01:00:28;21.17;;;12.37;;
8480;SDS011;4277;51.354;6.740;2023-10-09T01:02:57;18.37;;;11.87;;
8480;SDS011;4277;51.354;6.740;2023-10-09T01:05:38;17.00;;;11.33;;
8480;SDS011;4277;51.354;6.740;2023-10-09T01:08:22;23.90;;;12.57;;
8480;SDS011;4277;51.354;6.740;2023-10-09T01:10:58;19.50;;;11.63;;
8480;SDS011;4277;51.354;6.740;2023-10-09T01:13:45;17.33;;;10.60;;
8480;SDS011;4277;51.354;6.740;2023-10-09T01:16:21;16.10;;;10.77;;
8480;SDS011;4277;51.354;6.740;2023-10-09T01:18:48;18.20;;;11.50;;
8480;SDS011;4277;51.354;6.740;2023-10-09T01:21:15;15.63;;;10.90;;
8480;SDS011;4277;51.354;6.740;2023-10-09T01:23:49;17.50;;;10.80;;
8480;SDS011;4277;51.354;6.740;2023-10-09T01:26:31;16.20;;;10.27;;
8480;SDS011;4277;51.354;6.740;2023-10-09T01:29:18;14.67;;;10.57;;
8480;SDS011;4277;51.354;6.740;2023-10-09T01:31:45;17.13;;;10.07;;
8480;SDS011;4277;51.354;6.740;2023-10-09T01:34:19;14.83;;;10.37;;
8480;SDS011;4277;51.354;6.740;2023-10-09T01:36:50;15.10;;;9.83;;
8480;SDS011;4277;51.354;6.740;2023-10-09T01:39:19;17.03;;;10.40;;
8480;SDS011;4277;51.354;6.740;2023-10-09T01:42:11;15.40;;;9.23;;
8480;SDS011;4277;51.354;6.740;2023-10-09T01:44:48;15.63;;;9.30;;
8480;SDS011;4277;51.354;6.740;2023-10-09T01:47:14;13.70;;;9.33;;
8480;SDS011;4277;51.354;6.740;2023-10-09T01:49:43;15.97;;;9.37;;
8480;SDS011;4277;51.354;6.740;2023-10-09T01:52:13;13.03;;;8.80;;
8480;SDS011;4277;51.354;6.740;2023-10-09T01:54:43;16.47;;;9.50;;
8480;SDS011;4277;51.354;6.740;2023-10-09T01:57:14;14.63;;;9.90;;
8480;SDS011;4277;51.354;6.740;2023-10-09T01:59:41;13.20;;;9.40;;
8480;SDS011;4277;51.354;6.740;2023-10-09T02:02:13;16.07;;;9.33;;
8480;SDS011;4277;51.354;6.740;2023-10-09T02:04:58;19.80;;;10.00;;
8480;SDS011;4277;51.354;6.740;2023-10-09T02:07:36;14.00;;;9.40;;
8480;SDS011;4277;51.354;6.740;2023-10-09T02:10:09;14.17;;;9.53;;
8480;SDS011;4277;51.354;6.740;2023-10-09T02:12:47;12.53;;;9.10;;
8480;SDS011;4277;51.354;6.740;2023-10-09T02:18:13;12.00;;;8.53;;
8480;SDS011;4277;51.354;6.740;2023-10-09T02:21:03;12.97;;;8.70;;
8480;SDS011;4277;51.354;6.740;2023-10-09T02:23:30;15.30;;;8.60;;
8480;SDS011;4277;51.354;6.740;2023-10-09T02:26:05;12.73;;;9.10;;
8480;SDS011;4277;51.354;6.740;2023-10-09T02:28:33;12.90;;;9.23;;
8480;SDS011;4277;51.354;6.740;2023-10-09T02:31:00;11.97;;;9.10;;
8480;SDS011;4277;51.354;6.740;2023-10-09T02:33:35;13.57;;;9.57;;
8480;SDS011;4277;51.354;6.740;2023-10-09T02:36:01;15.60;;;9.80;;
8480;SDS011;4277;51.354;6.740;2023-10-09T02:38:30;12.77;;;9.40;;
8480;SDS011;4277;51.354;6.740;2023-10-09T02:41:00;11.93;;;8.63;;
8480;SDS011;4277;51.354;6.740;2023-10-09T02:43:45;10.93;;;8.33;;
8480;SDS011;4277;51.354;6.740;2023-10-09T02:46:12;12.20;;;9.27;;
8480;SDS011;4277;51.354;6.740;2023-10-09T02:48:58;11.33;;;8.73;;
8480;SDS011;4277;51.354;6.740;2023-10-09T02:51:25;13.63;;;8.60;;
8480;SDS011;4277;51.354;6.740;2023-10-09T02:54:09;14.70;;;9.47;;
8480;SDS011;4277;51.354;6.740;2023-10-09T02:56:52;11.37;;;9.13;;
8480;SDS011;4277;51.354;6.740;2023-10-09T02:59:32;12.17;;;9.00;;
8480;SDS011;4277;51.354;6.740;2023-10-09T03:01:58;14.07;;;9.10;;
8480;SDS011;4277;51.354;6.740;2023-10-09T03:04:26;12.27;;;8.67;;
8480;SDS011;4277;51.354;6.740;2023-10-09T03:06:54;13.70;;;9.17;;
8480;SDS011;4277;51.354;6.740;2023-10-09T03:09:22;11.50;;;9.03;;
8480;SDS011;4277;51.354;6.740;2023-10-09T03:11:52;14.03;;;9.27;;
8480;SDS011;4277;51.354;6.740;2023-10-09T03:14:19;11.03;;;9.23;;
8480;SDS011;4277;51.354;6.740;2023-10-09T03:16:46;13.83;;;9.27;;
8480;SDS011;4277;51.354;6.740;2023-10-09T03:19:14;12.47;;;8.83;;
8480;SDS011;4277;51.354;6.740;2023-10-09T03:21:40;12.97;;;9.13;;
8480;SDS011;4277;51.354;6.740;2023-10-09T03:24:06;12.87;;;8.83;;
8480;SDS011;4277;51.354;6.740;2023-10-09T03:26:33;13.10;;;8.40;;
8480;SDS011;4277;51.354;6.740;2023-10-09T03:28:59;11.07;;;8.47;;
8480;SDS011;4277;51.354;6.740;2023-10-09T03:31:34;11.63;;;8.50;;
8480;SDS011;4277;51.354;6.740;2023-10-09T03:34:01;13.07;;;8.27;;
8480;SDS011;4277;51.354;6.740;2023-10-09T03:36:27;12.67;;;8.33;;
8480;SDS011;4277;51.354;6.740;2023-10-09T03:38:55;9.93;;;8.20;;
8480;SDS011;4277;51.354;6.740;2023-10-09T03:41:23;16.23;;;9.70;;
8480;SDS011;4277;51.354;6.740;2023-10-09T03:43:51;13.07;;;8.70;;
8480;SDS011;4277;51.354;6.740;2023-10-09T03:46:19;10.20;;;8.60;;
8480;SDS011;4277;51.354;6.740;2023-10-09T03:48:58;12.73;;;7.87;;
8480;SDS011;4277;51.354;6.740;2023-10-09T03:51:27;9.93;;;8.10;;
8480;SDS011;4277;51.354;6.740;2023-10-09T03:53:53;11.80;;;8.77;;
8480;SDS011;4277;51.354;6.740;2023-10-09T03:56:19;13.57;;;8.87;;
8480;SDS011;4277;51.354;6.740;2023-10-09T03:58:47;13.20;;;9.23;;
8480;SDS011;4277;51.354;6.740;2023-10-09T04:01:20;13.13;;;8.80;;
8480;SDS011;4277;51.354;6.740;2023-10-09T04:04:06;12.00;;;8.60;;
8480;SDS011;4277;51.354;6.740;2023-10-09T04:06:35;11.77;;;8.43;;
8480;SDS011;4277;51.354;6.740;2023-10-09T04:09:06;10.80;;;8.17;;
8480;SDS011;4277;51.354;6.740;2023-10-09T04:11:41;11.23;;;8.80;;
8480;SDS011;4277;51.354;6.740;2023-10-09T04:14:08;14.80;;;8.77;;
8480;SDS011;4277;51.354;6.740;2023-10-09T04:16:46;11.07;;;7.90;;
8480;SDS011;4277;51.354;6.740;2023-10-09T04:19:51;12.37;;;8.40;;
8480;SDS011;4277;51.354;6.740;2023-10-09T04:22:36;13.40;;;8.63;;
8480;SDS011;4277;51.354;6.740;2023-10-09T04:25:14;11.93;;;7.73;;
8480;SDS011;4277;51.354;6.740;2023-10-09T04:27:50;10.50;;;8.57;;
8480;SDS011;4277;51.354;6.740;2023-10-09T04:30:18;9.77;;;7.40;;
8480;SDS011;4277;51.354;6.740;2023-10-09T04:32:44;13.73;;;8.57;;
8480;SDS011;4277;51.354;6.740;2023-10-09T04:35:13;13.07;;;8.10;;
8480;SDS011;4277;51.354;6.740;2023-10-09T04:37:48;11.23;;;8.33;;
8480;SDS011;4277;51.354;6.740;2023-10-09T04:40:25;12.63;;;8.30;;
8480;SDS011;4277;51.354;6.740;2023-10-09T04:43:13;12.43;;;8.93;;
8480;SDS011;4277;51.354;6.740;2023-10-09T04:45:48;11.60;;;8.50;;
8480;SDS011;4277;51.354;6.740;2023-10-09T04:48:37;11.47;;;8.40;;
8480;SDS011;4277;51.354;6.740;2023-10-09T04:51:06;12.80;;;8.73;;
8480;SDS011;4277;51.354;6.740;2023-10-09T04:53:51;11.07;;;8.40;;
8480;SDS011;4277;51.354;6.740;2023-10-09T04:56:37;15.97;;;8.37;;
8480;SDS011;4277;51.354;6.740;2023-10-09T04:59:16;10.03;;;8.13;;
8480;SDS011;4277;51.354;6.740;2023-10-09T05:01:43;16.57;;;9.30;;
8480;SDS011;4277;51.354;6.740;2023-10-09T05:04:22;13.07;;;8.73;;
8480;SDS011;4277;51.354;6.740;2023-10-09T05:06:54;14.17;;;8.90;;
8480;SDS011;4277;51.354;6.740;2023-10-09T05:09:21;13.37;;;8.90;;
8480;SDS011;4277;51.354;6.740;2023-10-09T05:11:47;11.93;;;8.77;;
8480;SDS011;4277;51.354;6.740;2023-10-09T05:14:16;11.90;;;8.80;;
8480;SDS011;4277;51.354;6.740;2023-10-09T05:16:44;12.83;;;8.10;;
8480;SDS011;4277;51.354;6.740;2023-10-09T05:19:22;11.97;;;8.23;;
8480;SDS011;4277;51.354;6.740;2023-10-09T05:22:15;10.77;;;7.77;;
8480;SDS011;4277;51.354;6.740;2023-10-09T05:24:59;11.13;;;7.87;;
8480;SDS011;4277;51.354;6.740;2023-10-09T05:27:25;13.07;;;8.57;;
8480;SDS011;4277;51.354;6.740;2023-10-09T05:30:10;9.93;;;8.43;;
8480;SDS011;4277;51.354;6.740;2023-10-09T05:32:55;11.60;;;7.63;;
8480;SDS011;4277;51.354;6.740;2023-10-09T05:35:44;12.03;;;8.63;;
8480;SDS011;4277;51.354;6.740;2023-10-09T05:38:30;12.77;;;8.50;;
8480;SDS011;4277;51.354;6.740;2023-10-09T05:40:56;10.77;;;7.67;;
8480;SDS011;4277;51.354;6.740;2023-10-09T05:43:42;13.17;;;9.50;;
8480;SDS011;4277;51.354;6.740;2023-10-09T05:46:26;9.63;;;7.90;;
8480;SDS011;4277;51.354;6.740;2023-10-09T05:49:00;12.63;;;8.20;;
8480;SDS011;4277;51.354;6.740;2023-10-09T05:51:34;13.17;;;9.17;;
8480;SDS011;4277;51.354;6.740;2023-10-09T05:54:06;10.93;;;8.00;;
8480;SDS011;4277;51.354;6.740;2023-10-09T05:56:51;13.73;;;8.50;;
8480;SDS011;4277;51.354;6.740;2023-10-09T05:59:36;10.77;;;7.97;;
8480;SDS011;4277;51.354;6.740;2023-10-09T06:02:20;12.33;;;8.73;;
8480;SDS011;4277;51.354;6.740;2023-10-09T06:05:05;13.00;;;8.97;;
8480;SDS011;4277;51.354;6.740;2023-10-09T06:07:51;12.67;;;8.27;;
8480;SDS011;4277;51.354;6.740;2023-10-09T06:10:31;9.73;;;7.47;;
8480;SDS011;4277;51.354;6.740;2023-10-09T06:13:06;10.63;;;8.20;;
8480;SDS011;4277;51.354;6.740;2023-10-09T06:15:36;9.87;;;7.73;;
8480;SDS011;4277;51.354;6.740;2023-10-09T06:18:34;9.43;;;7.80;;
8480;SDS011;4277;51.354;6.740;2023-10-09T06:21:00;10.77;;;7.60;;
8480;SDS011;4277;51.354;6.740;2023-10-09T06:23:55;9.73;;;7.77;;
8480;SDS011;4277;51.354;6.740;2023-10-09T06:26:42;9.30;;;7.37;;
8480;SDS011;4277;51.354;6.740;2023-10-09T06:29:28;10.50;;;7.50;;
8480;SDS011;4277;51.354;6.740;2023-10-09T06:32:01;10.53;;;8.10;;
8480;SDS011;4277;51.354;6.740;2023-10-09T06:34:46;8.50;;;6.93;;
8480;SDS011;4277;51.354;6.740;2023-10-09T06:37:17;8.50;;;7.30;;
8480;SDS011;4277;51.354;6.740;2023-10-09T06:39:43;13.13;;;7.53;;
8480;SDS011;4277;51.354;6.740;2023-10-09T06:42:21;12.33;;;7.73;;
8480;SDS011;4277;51.354;6.740;2023-10-09T06:45:10;11.87;;;8.47;;
8480;SDS011;4277;51.354;6.740;2023-10-09T06:47:39;12.00;;;8.03;;
8480;SDS011;4277;51.354;6.740;2023-10-09T06:50:19;13.40;;;9.63;;
8480;SDS011;4277;51.354;6.740;2023-10-09T06:52:45;20.17;;;11.40;;
8480;SDS011;4277;51.354;6.740;2023-10-09T06:55:35;16.47;;;9.83;;
8480;SDS011;4277;51.354;6.740;2023-10-09T06:58:13;13.17;;;9.00;;
8480;SDS011;4277;51.354;6.740;2023-10-09T07:00:41;10.33;;;8.50;;
8480;SDS011;4277;51.354;6.740;2023-10-09T07:03:16;15.17;;;9.80;;
8480;SDS011;4277;51.354;6.740;2023-10-09T07:05:44;12.93;;;9.07;;
8480;SDS011;4277;51.354;6.740;2023-10-09T07:08:29;13.40;;;9.07;;
8480;SDS011;4277;51.354;6.740;2023-10-09T07:11:02;13.27;;;9.27;;
8480;SDS011;4277;51.354;6.740;2023-10-09T07:13:52;12.27;;;9.50;;
8480;SDS011;4277;51.354;6.740;2023-10-09T07:16:21;12.23;;;9.00;;
8480;SDS011;4277;51.354;6.740;2023-10-09T07:18:54;13.60;;;8.83;;
8480;SDS011;4277;51.354;6.740;2023-10-09T07:21:20;13.83;;;9.90;;
8480;SDS011;4277;51.354;6.740;2023-10-09T07:23:53;12.67;;;9.40;;
8480;SDS011;4277;51.354;6.740;2023-10-09T07:26:23;12.77;;;9.97;;
8480;SDS011;4277;51.354;6.740;2023-10-09T07:29:01;13.90;;;10.00;;
8480;SDS011;4277;51.354;6.740;2023-10-09T07:31:41;12.33;;;9.53;;
8480;SDS011;4277;51.354;6.740;2023-10-09T07:34:10;15.93;;;9.80;;
8480;SDS011;4277;51.354;6.740;2023-10-09T07:36:55;14.80;;;10.37;;
8480;SDS011;4277;51.354;6.740;2023-10-09T07:39:29;12.80;;;9.60;;
8480;SDS011;4277;51.354;6.740;2023-10-09T07:41:59;13.97;;;9.47;;
8480;SDS011;4277;51.354;6.740;2023-10-09T07:44:40;15.07;;;9.83;;
8480;SDS011;4277;51.354;6.740;2023-10-09T07:47:11;17.63;;;10.10;;
8480;SDS011;4277;51.354;6.740;2023-10-09T07:50:11;13.73;;;9.40;;
8480;SDS011;4277;51.354;6.740;2023-10-09T07:52:46;12.57;;;9.57;;
8480;SDS011;4277;51.354;6.740;2023-10-09T07:55:14;12.03;;;9.67;;
8480;SDS011;4277;51.354;6.740;2023-10-09T07:57:52;14.33;;;10.57;;
8480;SDS011;4277;51.354;6.740;2023-10-09T08:00:18;14.33;;;9.80;;
8480;SDS011;4277;51.354;6.740;2023-10-09T08:03:22;13.03;;;10.13;;
8480;SDS011;4277;51.354;6.740;2023-10-09T08:05:49;14.30;;;10.00;;
8480;SDS011;4277;51.354;6.740;2023-10-09T08:08:17;13.03;;;8.50;;
8480;SDS011;4277;51.354;6.740;2023-10-09T08:11:03;14.37;;;9.53;;
8480;SDS011;4277;51.354;6.740;2023-10-09T08:13:48;15.77;;;9.57;;
8480;SDS011;4277;51.354;6.740;2023-10-09T08:16:14;13.57;;;9.33;;
8480;SDS011;4277;51.354;6.740;2023-10-09T08:18:47;13.37;;;9.57;;
8480;SDS011;4277;51.354;6.740;2023-10-09T08:21:16;16.07;;;9.80;;
8480;SDS011;4277;51.354;6.740;2023-10-09T08:23:42;18.53;;;9.77;;
8480;SDS011;4277;51.354;6.740;2023-10-09T08:26:15;16.33;;;10.47;;
8480;SDS011;4277;51.354;6.740;2023-10-09T08:28:54;13.80;;;10.67;;
8480;SDS011;4277;51.354;6.740;2023-10-09T08:31:40;15.40;;;10.40;;
8480;SDS011;4277;51.354;6.740;2023-10-09T08:34:21;13.50;;;9.63;;
8480;SDS011;4277;51.354;6.740;2023-10-09T08:36:51;13.50;;;10.87;;
8480;SDS011;4277;51.354;6.740;2023-10-09T08:39:19;15.07;;;9.87;;
8480;SDS011;4277;51.354;6.740;2023-10-09T08:41:52;17.17;;;11.23;;
8480;SDS011;4277;51.354;6.740;2023-10-09T08:44:22;12.00;;;9.30;;
8480;SDS011;4277;51.354;6.740;2023-10-09T08:46:50;13.77;;;9.77;;
8480;SDS011;4277;51.354;6.740;2023-10-09T08:49:16;17.98;;;10.77;;
8480;SDS011;4277;51.354;6.740;2023-10-09T08:51:43;16.20;;;10.77;;
8480;SDS011;4277;51.354;6.740;2023-10-09T08:54:12;15.50;;;9.90;;
8480;SDS011;4277;51.354;6.740;2023-10-09T08:56:39;14.57;;;10.33;;
8480;SDS011;4277;51.354;6.740;2023-10-09T08:59:14;18.27;;;9.75;;
8480;SDS011;4277;51.354;6.740;2023-10-09T09:01:41;15.02;;;9.77;;
8480;SDS011;4277;51.354;6.740;2023-10-09T09:04:07;12.95;;;9.38;;
8480;SDS011;4277;51.354;6.740;2023-10-09T09:06:39;12.67;;;9.90;;
8480;SDS011;4277;51.354;6.740;2023-10-09T09:09:12;13.93;;;9.80;;
8480;SDS011;4277;51.354;6.740;2023-10-09T09:11:42;12.60;;;9.10;;
8480;SDS011;4277;51.354;6.740;2023-10-09T09:14:13;14.82;;;9.32;;
8480;SDS011;4277;51.354;6.740;2023-10-09T09:16:44;14.02;;;9.50;;
8480;SDS011;4277;51.354;6.740;2023-10-09T09:19:13;11.90;;;8.88;;
8480;SDS011;4277;51.354;6.740;2023-10-09T09:21:52;13.00;;;9.30;;
8480;SDS011;4277;51.354;6.740;2023-10-09T09:24:24;10.73;;;8.63;;
8480;SDS011;4277;51.354;6.740;2023-10-09T09:26:50;13.75;;;9.50;;
8480;SDS011;4277;51.354;6.740;2023-10-09T09:32:04;11.48;;;8.57;;
8480;SDS011;4277;51.354;6.740;2023-10-09T09:34:43;11.85;;;9.07;;
8480;SDS011;4277;51.354;6.740;2023-10-09T09:37:12;14.95;;;8.32;;
8480;SDS011;4277;51.354;6.740;2023-10-09T09:39:44;12.52;;;8.40;;
8480;SDS011;4277;51.354;6.740;2023-10-09T09:42:13;15.95;;;9.82;;
8480;SDS011;4277;51.354;6.740;2023-10-09T09:44:39;10.85;;;8.40;;
8480;SDS011;4277;51.354;6.740;2023-10-09T09:47:09;15.63;;;9.52;;
8480;SDS011;4277;51.354;6.740;2023-10-09T09:49:37;13.38;;;8.95;;
8480;SDS011;4277;51.354;6.740;2023-10-09T09:52:04;13.70;;;9.30;;
8480;SDS011;4277;51.354;6.740;2023-10-09T09:54:35;14.05;;;8.88;;
8480;SDS011;4277;51.354;6.740;2023-10-09T09:57:03;14.35;;;9.00;;
8480;SDS011;4277;51.354;6.740;2023-10-09T09:59:42;12.55;;;9.20;;
8480;SDS011;4277;51.354;6.740;2023-10-09T10:02:18;11.48;;;8.82;;
8480;SDS011;4277;51.354;6.740;2023-10-09T10:04:46;12.55;;;8.93;;
8480;SDS011;4277;51.354;6.740;2023-10-09T10:07:15;15.88;;;9.20;;
8480;SDS011;4277;51.354;6.740;2023-10-09T10:09:42;14.65;;;9.25;;
8480;SDS011;4277;51.354;6.740;2023-10-09T10:12:10;12.10;;;9.05;;
8480;SDS011;4277;51.354;6.740;2023-10-09T10:14:51;13.27;;;9.38;;
8480;SDS011;4277;51.354;6.740;2023-10-09T10:17:18;16.90;;;9.98;;
8480;SDS011;4277;51.354;6.740;2023-10-09T10:19:58;11.55;;;8.60;;
8480;SDS011;4277;51.354;6.740;2023-10-09T10:22:28;12.40;;;9.40;;
8480;SDS011;4277;51.354;6.740;2023-10-09T10:25:02;14.52;;;9.70;;
8480;SDS011;4277;51.354;6.740;2023-10-09T10:27:34;12.80;;;8.77;;
8480;SDS011;4277;51.354;6.740;2023-10-09T10:32:55;12.52;;;8.30;;
8480;SDS011;4277;51.354;6.740;2023-10-09T10:35:22;10.68;;;8.00;;
8480;SDS011;4277;51.354;6.740;2023-10-09T10:37:57;13.55;;;8.85;;
8480;SDS011;4277;51.354;6.740;2023-10-09T10:40:32;11.55;;;8.07;;
8480;SDS011;4277;51.354;6.740;2023-10-09T10:43:18;12.52;;;8.27;;
8480;SDS011;4277;51.354;6.740;2023-10-09T10:46:12;11.93;;;7.90;;
8480;SDS011;4277;51.354;6.740;2023-10-09T10:48:49;10.18;;;8.20;;
8480;SDS011;4277;51.354;6.740;2023-10-09T10:51:24;8.23;;;7.13;;
8480;SDS011;4277;51.354;6.740;2023-10-09T10:54:01;14.15;;;8.48;;
8480;SDS011;4277;51.354;6.740;2023-10-09T10:56:48;10.68;;;7.78;;
8480;SDS011;4277;51.354;6.740;2023-10-09T10:59:14;10.80;;;8.07;;
8480;SDS011;4277;51.354;6.740;2023-10-09T11:01:48;11.27;;;7.82;;
8480;SDS011;4277;51.354;6.740;2023-10-09T11:04:27;12.32;;;8.20;;
8480;SDS011;4277;51.354;6.740;2023-10-09T11:07:00;13.95;;;8.60;;
8480;SDS011;4277;51.354;6.740;2023-10-09T11:09:46;12.95;;;9.02;;
8480;SDS011;4277;51.354;6.740;2023-10-09T11:12:31;13.32;;;8.77;;
8480;SDS011;4277;51.354;6.740;2023-10-09T11:15:07;11.80;;;8.32;;
8480;SDS011;4277;51.354;6.740;2023-10-09T11:20:33;13.65;;;8.95;;
8480;SDS011;4277;51.354;6.740;2023-10-09T11:23:00;14.27;;;9.00;;
8480;SDS011;4277;51.354;6.740;2023-10-09T11:25:39;14.68;;;8.60;;
8480;SDS011;4277;51.354;6.740;2023-10-09T11:28:28;13.52;;;7.80;;
8480;SDS011;4277;51.354;6.740;2023-10-09T11:30:55;13.80;;;8.50;;
8480;SDS011;4277;51.354;6.740;2023-10-09T11:33:21;10.70;;;7.60;;
8480;SDS011;4277;51.354;6.740;2023-10-09T11:35:54;12.65;;;8.27;;
8480;SDS011;4277;51.354;6.740;2023-10-09T11:38:22;14.00;;;8.45;;
8480;SDS011;4277;51.354;6.740;2023-10-09T11:40:48;13.82;;;8.73;;
8480;SDS011;4277;51.354;6.740;2023-10-09T11:43:17;10.55;;;8.18;;
8480;SDS011;4277;51.354;6.740;2023-10-09T11:45:49;13.45;;;8.50;;
8480;SDS011;4277;51.354;6.740;2023-10-09T11:48:21;11.43;;;8.10;;
8480;SDS011;4277;51.354;6.740;2023-10-09T11:50:58;12.95;;;8.45;;
8480;SDS011;4277;51.354;6.740;2023-10-09T11:53:39;12.18;;;8.25;;
8480;SDS011;4277;51.354;6.740;2023-10-09T11:56:08;12.70;;;8.50;;
8480;SDS011;4277;51.354;6.740;2023-10-09T11:58:39;13.75;;;8.98;;
8480;SDS011;4277;51.354;6.740;2023-10-09T12:01:14;15.60;;;9.07;;
8480;SDS011;4277;51.354;6.740;2023-10-09T12:03:45;11.95;;;7.95;;
8480;SDS011;4277;51.354;6.740;2023-10-09T12:06:15;15.40;;;9.77;;
8480;SDS011;4277;51.354;6.740;2023-10-09T12:08:44;12.60;;;8.90;;
8480;SDS011;4277;51.354;6.740;2023-10-09T12:11:12;13.80;;;8.30;;
8480;SDS011;4277;51.354;6.740;2023-10-09T12:13:40;16.40;;;9.35;;
8480;SDS011;4277;51.354;6.740;2023-10-09T12:16:10;11.40;;;7.90;;
8480;SDS011;4277;51.354;6.740;2023-10-09T12:18:40;13.52;;;8.13;;
8480;SDS011;4277;51.354;6.740;2023-10-09T12:21:06;14.77;;;9.05;;
8480;SDS011;4277;51.354;6.740;2023-10-09T12:23:33;14.10;;;8.63;;
8480;SDS011;4277;51.354;6.740;2023-10-09T12:26:02;14.20;;;9.48;;
8480;SDS011;4277;51.354;6.740;2023-10-09T12:28:29;12.40;;;9.52;;
8480;SDS011;4277;51.354;6.740;2023-10-09T12:30:57;13.27;;;8.60;;
8480;SDS011;4277;51.354;6.740;2023-10-09T12:33:26;15.95;;;9.20;;
8480;SDS011;4277;51.354;6.740;2023-10-09T12:35:56;13.90;;;9.77;;
8480;SDS011;4277;51.354;6.740;2023-10-09T12:38:28;10.38;;;8.82;;
8480;SDS011;4277;51.354;6.740;2023-10-09T12:41:00;15.88;;;8.73;;
8480;SDS011;4277;51.354;6.740;2023-10-09T12:43:33;14.88;;;9.63;;
8480;SDS011;4277;51.354;6.740;2023-10-09T12:46:04;15.43;;;9.57;;
8480;SDS011;4277;51.354;6.740;2023-10-09T12:48:31;12.52;;;8.40;;
8480;SDS011;4277;51.354;6.740;2023-10-09T12:50:57;15.27;;;8.68;;
8480;SDS011;4277;51.354;6.740;2023-10-09T12:53:23;14.57;;;9.48;;
8480;SDS011;4277;51.354;6.740;2023-10-09T12:55:53;15.65;;;9.38;;
8480;SDS011;4277;51.354;6.740;2023-10-09T12:58:21;13.52;;;9.52;;
8480;SDS011;4277;51.354;6.740;2023-10-09T13:00:47;15.02;;;9.50;;
8480;SDS011;4277;51.354;6.740;2023-10-09T13:03:14;14.70;;;9.50;;
8480;SDS011;4277;51.354;6.740;2023-10-09T13:05:47;15.13;;;9.65;;
8480;SDS011;4277;51.354;6.740;2023-10-09T13:10:49;15.45;;;9.65;;
8480;SDS011;4277;51.354;6.740;2023-10-09T13:13:28;14.68;;;9.00;;
8480;SDS011;4277;51.354;6.740;2023-10-09T13:16:15;12.18;;;10.02;;
8480;SDS011;4277;51.354;6.740;2023-10-09T13:18:55;13.95;;;10.23;;
8480;SDS011;4277;51.354;6.740;2023-10-09T13:21:24;15.63;;;10.25;;
8480;SDS011;4277;51.354;6.740;2023-10-09T13:23:51;14.95;;;9.98;;
8480;SDS011;4277;51.354;6.740;2023-10-09T13:26:19;13.82;;;9.57;;
8480;SDS011;4277;51.354;6.740;2023-10-09T13:28:53;15.93;;;9.68;;
8480;SDS011;4277;51.354;6.740;2023-10-09T13:31:20;15.93;;;10.50;;
8480;SDS011;4277;51.354;6.740;2023-10-09T13:33:46;15.52;;;9.65;;
8480;SDS011;4277;51.354;6.740;2023-10-09T13:36:13;15.75;;;10.05;;
8480;SDS011;4277;51.354;6.740;2023-10-09T13:38:52;14.60;;;8.52;;
8480;SDS011;4277;51.354;6.740;2023-10-09T13:41:18;17.70;;;10.48;;
8480;SDS011;4277;51.354;6.740;2023-10-09T13:43:44;14.98;;;10.38;;
8480;SDS011;4277;51.354;6.740;2023-10-09T13:46:10;15.20;;;9.95;;
8480;SDS011;4277;51.354;6.740;2023-10-09T13:48:37;15.00;;;9.70;;
8480;SDS011;4277;51.354;6.740;2023-10-09T13:51:21;16.23;;;10.05;;
8480;SDS011;4277;51.354;6.740;2023-10-09T13:53:49;15.07;;;10.07;;
8480;SDS011;4277;51.354;6.740;2023-10-09T13:56:15;15.73;;;11.00;;
8480;SDS011;4277;51.354;6.740;2023-10-09T13:58:51;15.02;;;10.20;;
8480;SDS011;4277;51.354;6.740;2023-10-09T14:01:19;14.75;;;11.35;;
8480;SDS011;4277;51.354;6.740;2023-10-09T14:03:52;15.23;;;10.93;;
8480;SDS011;4277;51.354;6.740;2023-10-09T14:06:18;16.45;;;10.73;;
8480;SDS011;4277;51.354;6.740;2023-10-09T14:08:55;15.98;;;11.20;;
8480;SDS011;4277;51.354;6.740;2023-10-09T14:11:21;15.13;;;11.20;;
8480;SDS011;4277;51.354;6.740;2023-10-09T14:13:47;17.30;;;11.77;;
8480;SDS011;4277;51.354;6.740;2023-10-09T14:16:13;18.58;;;12.73;;
8480;SDS011;4277;51.354;6.740;2023-10-09T14:18:58;15.65;;;11.55;;
8480;SDS011;4277;51.354;6.740;2023-10-09T14:21:26;18.90;;;12.55;;
8480;SDS011;4277;51.354;6.740;2023-10-09T14:23:55;15.07;;;11.82;;
8480;SDS011;4277;51.354;6.740;2023-10-09T14:26:27;14.20;;;10.77;;
8480;SDS011;4277;51.354;6.740;2023-10-09T14:28:54;17.63;;;11.95;;
8480;SDS011;4277;51.354;6.740;2023-10-09T14:31:22;18.83;;;12.60;;
8480;SDS011;4277;51.354;6.740;2023-10-09T14:33:54;20.98;;;12.45;;
8480;SDS011;4277;51.354;6.740;2023-10-09T14:36:21;18.75;;;12.27;;
8480;SDS011;4277;51.354;6.740;2023-10-09T14:38:50;14.88;;;11.50;;
8480;SDS011;4277;51.354;6.740;2023-10-09T14:41:21;17.00;;;11.90;;
8480;SDS011;4277;51.354;6.740;2023-10-09T14:43:50;20.40;;;12.40;;
8480;SDS011;4277;51.354;6.740;2023-10-09T14:46:20;16.95;;;12.05;;
8480;SDS011;4277;51.354;6.740;2023-10-09T14:48:51;18.38;;;12.43;;
8480;SDS011;4277;51.354;6.740;2023-10-09T14:51:21;17.77;;;12.75;;
8480;SDS011;4277;51.354;6.740;2023-10-09T14:53:58;18.23;;;12.90;;
8480;SDS011;4277;51.354;6.740;2023-10-09T14:56:27;16.77;;;11.52;;
8480;SDS011;4277;51.354;6.740;2023-10-09T14:58:58;15.70;;;11.88;;
8480;SDS011;4277;51.354;6.740;2023-10-09T15:01:25;19.25;;;12.65;;
8480;SDS011;4277;51.354;6.740;2023-10-09T15:03:54;15.90;;;12.20;;
8480;SDS011;4277;51.354;6.740;2023-10-09T15:06:22;19.33;;;12.65;;
8480;SDS011;4277;51.354;6.740;2023-10-09T15:08:48;16.83;;;12.60;;
8480;SDS011;4277;51.354;6.740;2023-10-09T15:11:14;18.92;;;12.38;;
8480;SDS011;4277;51.354;6.740;2023-10-09T15:13:40;20.55;;;11.73;;
8480;SDS011;4277;51.354;6.740;2023-10-09T15:16:06;18.48;;;14.10;;
8480;SDS011;4277;51.354;6.740;2023-10-09T15:18:33;18.20;;;13.57;;
8480;SDS011;4277;51.354;6.740;2023-10-09T15:21:02;18.45;;;12.68;;
8480;SDS011;4277;51.354;6.740;2023-10-09T15:23:28;17.17;;;12.30;;
8480;SDS011;4277;51.354;6.740;2023-10-09T15:25:54;20.50;;;12.10;;
8480;SDS011;4277;51.354;6.740;2023-10-09T15:28:21;17.77;;;11.85;;
8480;SDS011;4277;51.354;6.740;2023-10-09T15:30:47;18.40;;;11.90;;
8480;SDS011;4277;51.354;6.740;2023-10-09T15:33:17;20.20;;;13.43;;
8480;SDS011;4277;51.354;6.740;2023-10-09T15:35:44;18.17;;;12.68;;
8480;SDS011;4277;51.354;6.740;2023-10-09T15:38:14;16.65;;;10.60;;
8480;SDS011;4277;51.354;6.740;2023-10-09T15:40:41;16.00;;;11.60;;
8480;SDS011;4277;51.354;6.740;2023-10-09T15:43:09;17.10;;;12.00;;
8480;SDS011;4277;51.354;6.740;2023-10-09T15:45:44;18.58;;;13.10;;
8480;SDS011;4277;51.354;6.740;2023-10-09T15:48:13;16.38;;;12.57;;